Time;durP1;ratioP1;P1;durP2;ratioP2;P2;SDS_P1;SDS_P2;PMS_P1;PMS_P2;Temp;Humidity;BMP_temperature;BMP_pressure;BME280_temperature;BME280_humidity;BME280_pressure;Samples;Min_cycle;Max_cycle;Signal;HPM_P1;HPM_P2
2023/07/13 00:14:03;;;;;;;;;;;;;;;26.75;53.06;100089.78;42219664;28;19928;-84
2023/07/13 00:34:04;;;;;;;;;;;;;;;26.93;52.04;99994.84;42296187;28;19928;-84
2023/07/13 00:54:06;;;;;;;;;;;;;;;26.94;50.41;99950.50;42308233;28;19919;-85
2023/07/13 01:14:07;;;;;;;;;;;;;;;26.25;52.02;99917.09;42288668;28;19924;-86
2023/07/13 01:34:08;;;;;;;;;;;;;;;26.27;51.19;99924.88;42305139;28;20010;-87
2023/07/13 01:54:08;;;;;;;;;;;;;;;25.83;53.25;99900.25;42298849;27;19984;-84
2023/07/13 02:14:09;;;;;;;;;;;;;;;25.70;53.56;99889.25;42317784;27;19981;-83
2023/07/13 02:34:10;;;;;;;;;;;;;;;25.59;54.46;99885.06;42340736;27;19939;-87
2023/07/13 02:54:13;;;;;;;;;;;;;;;25.33;55.56;99907.13;42326222;28;19931;-83
2023/07/13 03:14:13;;;;;;;;;;;;;;;25.22;57.13;99955.94;42293113;28;20642;-85
2023/07/13 03:34:14;;;;;;;;;;;;;;;25.02;58.45;99939.41;42289625;27;19924;-84
2023/07/13 03:54:14;;;;;;;;;;;;;;;25.01;58.68;99958.09;42281231;27;19963;-84
2023/07/13 04:14:14;;;;;;;;;;;;;;;24.91;59.23;99993.47;42276210;28;19924;-83
2023/07/13 04:34:15;;;;;;;;;;;;;;;24.64;59.31;100034.06;42242022;28;19932;-80
2023/07/13 04:54:16;;;;;;;;;;;;;;;24.70;58.85;100070.53;42236186;28;20666;-81
2023/07/13 05:14:16;;;;;;;;;;;;;;;24.28;60.74;100192.78;42223838;28;19938;-84
2023/07/13 05:34:17;;;;;;;;;;;;;;;25.05;58.21;100246.38;42317262;27;19932;-84
2023/07/13 05:54:17;;;;;;;;;;;;;;;25.42;56.73;100245.47;42329899;28;19975;-84
2023/07/13 06:14:17;;;;;;;;;;;;;;;25.65;55.85;100122.25;42323873;28;19934;-86
2023/07/13 06:34:18;;;;;;;;;;;;;;;25.83;55.05;99841.03;42334634;27;19930;-82
2023/07/13 06:54:18;;;;;;;;;;;;;;;25.72;55.88;99872.19;42297679;27;20489;-85
2023/07/13 07:14:18;;;;;;;;;;;;;;;25.42;57.70;99886.81;42286105;27;19993;-88
2023/07/13 07:34:19;;;;;;;;;;;;;;;24.48;59.15;100063.84;42215425;28;19970;-83
2023/07/13 07:54:19;;;;;;;;;;;;;;;24.46;57.53;100089.59;42259449;28;20336;-88
2023/07/13 08:14:20;;;;;;;;;;;;;;;24.42;57.31;100072.38;42310973;28;19931;-87
2023/07/13 08:34:20;;;;;;;;;;;;;;;24.58;57.15;100079.66;42302652;28;19932;-85
2023/07/13 08:54:23;;;;;;;;;;;;;;;24.91;55.91;100086.16;42341331;28;20013;-86
2023/07/13 09:14:34;;;;;;;;;;;;;;;25.38;55.81;100097.53;42361813;27;19931;-82
2023/07/13 09:34:34;;;;;;;;;;;;;;;25.68;56.57;100096.25;42144440;28;19924;-82
2023/07/13 09:54:35;;;;;;;;;;;;;;;25.85;53.84;100101.66;42118846;28;19924;-86
2023/07/13 10:14:36;;;;;;;;;;;;;;;26.18;53.37;100107.16;42145957;28;19915;-84
2023/07/13 10:34:37;;;;;;;;;;;;;;;26.51;51.95;100107.28;42327300;28;19935;-83
2023/07/13 10:54:37;;;;;;;;;;;;;;;26.78;49.57;100102.72;42288031;28;20390;-81
2023/07/13 11:14:58;;;;;;;;;;;;;;;27.13;48.90;100092.81;42274420;27;19928;-80
2023/07/13 11:34:59;;;;;;;;;;;;;;;27.45;47.14;100081.38;42245005;28;19935;-80
2023/07/13 11:55:00;;;;;;;;;;;;;;;27.78;47.15;100088.47;42278404;28;19939;-82
2023/07/13 12:15:05;;;;;;;;;;;;;;;28.02;44.85;100055.63;42251559;27;20347;-81
2023/07/13 12:35:16;;;;;;;;;;;;;;;28.24;43.49;100067.38;42094201;28;19924;-81
2023/07/13 12:55:18;;;;;;;;;;;;;;;28.42;44.53;100055.66;42092949;28;19920;-81
2023/07/13 13:15:18;;;;;;;;;;;;;;;28.70;42.39;100040.03;42110007;28;19932;-87
2023/07/13 13:35:19;;;;;;;;;;;;;;;28.87;43.77;100024.75;42099928;28;19924;-86
2023/07/13 13:55:21;;;;;;;;;;;;;;;28.99;43.07;100025.16;42165249;28;19981;-84
2023/07/13 14:15:22;;;;;;;;;;;;;;;28.97;42.88;100029.81;42157836;28;19924;-83
2023/07/13 14:35:23;;;;;;;;;;;;;;;28.86;44.20;100038.25;42311774;28;19924;-84
2023/07/13 14:55:26;;;;;;;;;;;;;;;28.71;43.51;100081.66;42314002;28;19959;-85
2023/07/13 15:15:27;;;;;;;;;;;;;;;28.49;42.50;100080.59;42265345;28;19954;-85
2023/07/13 15:35:28;;;;;;;;;;;;;;;28.34;42.35;100092.97;42161269;28;19928;-87
2023/07/13 15:55:29;;;;;;;;;;;;;;;28.19;42.54;100053.75;42116369;28;19932;-81
2023/07/13 16:15:31;;;;;;;;;;;;;;;28.10;42.95;100105.38;42088132;28;19983;-78
2023/07/13 16:35:36;;;;;;;;;;;;;;;27.88;42.66;100113.06;42026227;28;19924;-79
2023/07/13 16:55:37;;;;;;;;;;;;;;;27.75;42.67;100094.13;42077102;28;19932;-78
2023/07/13 17:15:38;;;;;;;;;;;;;;;27.55;43.64;100093.66;42093744;28;19932;-79
2023/07/13 17:35:38;;;;;;;;;;;;;;;27.35;44.57;100087.84;42122096;28;19924;-77
2023/07/13 17:55:39;;;;;;;;;;;;;;;27.44;44.79;100106.31;42129539;28;19935;-81
2023/07/13 18:15:41;;;;;;;;;;;;;;;27.41;41.48;100116.44;42119704;28;19924;-81
2023/07/13 18:35:41;;;;;;;;;;;;;;;27.16;38.53;100143.81;42101249;28;19924;-84
2023/07/13 18:55:43;;;;;;;;;;;;;;;27.02;40.89;100167.56;42132529;28;19974;-82
2023/07/13 19:15:44;;;;;;;;;;;;;;;26.98;38.58;100189.13;42112614;28;20396;-79
2023/07/13 19:35:51;;;;;;;;;;;;;;;26.73;40.51;100209.44;42112669;28;19929;-85
2023/07/13 19:55:52;;;;;;;;;;;;;;;26.20;41.28;100245.84;42077363;28;19932;-84
2023/07/13 20:15:52;;;;;;;;;;;;;;;25.89;42.99;100275.44;42119906;28;19931;-86
2023/07/13 20:35:54;;;;;;;;;;;;;;;25.95;43.80;100261.56;42288113;27;19920;-81
2023/07/13 20:55:54;;;;;;;;;;;;;;;26.29;44.04;100257.34;42293494;28;20001;-81
2023/07/13 21:15:57;;;;;;;;;;;;;;;26.44;45.66;100221.25;42258630;28;20344;-81
2023/07/13 21:35:58;;;;;;;;;;;;;;;26.34;45.94;100218.72;42115965;28;20003;-81
2023/07/13 21:55:59;;;;;;;;;;;;;;;26.02;44.88;100253.78;42129641;28;21590;-78
2023/07/13 22:15:59;;;;;;;;;;;;;;;25.76;46.15;100285.59;42133690;28;19931;-80
2023/07/13 22:36:01;;;;;;;;;;;;;;;25.91;46.63;100286.69;42115714;28;19959;-82
2023/07/13 22:56:01;;;;;;;;;;;;;;;25.95;47.14;100284.56;42105253;28;19931;-80
2023/07/13 23:16:08;;;;;;;;;;;;;;;25.78;48.22;100299.50;42102727;28;20386;-81
2023/07/13 23:36:13;;;;;;;;;;;;;;;25.63;48.66;100304.50;42126669;28;19928;-80
2023/07/13 23:56:17;;;;;;;;;;;;;;;25.34;49.35;100334.66;42108527;28;20291;-82
